Tiempo atmosférico en la estación meteorológica de Candelaria, Santa Cruz de Tenerife (463 m.)



Fecha
DESCASC
Temp. máxima en grados centígrados (hora)
DESCASC
Temp. mínima en grados centígrados (hora)
DESCASC
Temp. media en grados centígrados
DESCASC
Racha de viento máxima en m/sg (hora)
DESCASC
Velocidad máxima media en intervalos de 10 minutos(hora)
DESCASC
Precipitaciones diarias en mm
DESCASC
Precipitaciones de 00:00 a 06:00 en mm
DESCASC
Precipitaciones de 06:00 a 12:00 en mm
DESCASC
Precipitaciones de 12:00 a 18:00 en mm
DESCASC
Precipitaciones de 18:00 a 24:00 en mm
DESCASC
10-11-2019 20.7 (11:50) 14.9 (00:00) 17.8 14.72 (10:20) 8.06 (11:00) 0 0 0 0 0
09-11-2019 21.3 (11:50) 16.3 (00:00) 18.8 16.94 (18:10) 10.56 (16:10) 0 0 0 0 0
08-11-2019 20.9 (10:50) 16.5 (22:50) 18.7 13.61 (17:20) 9.17 (17:10) 1.6 0 1 0.6 0
07-11-2019 21.6 (12:50) 15.4 (00:00) 18.5 12.22 (15:40) 8.33 (15:40) 0 0 0 0 0
06-11-2019 22 (13:30) 15.4 (00:00) 18.7 18.33 (15:40) 9.72 (15:40) 0 0 0 0 0
05-11-2019 23.9 (12:10) 16.1 (00:00) 20 17.78 (01:00) 8.33 (01:10) 0 0 0 0 0
04-11-2019 24.3 (15:50) 16 (00:00) 20.1 16.11 (23:59) 7.78 (23:59) 0 0 0 0 0
03-11-2019 25 (13:40) 18.8 (00:00) 21.9 11.67 (21:10) 5.83 (14:00) 0 0 0 0 0
02-11-2019 27.4 (11:10) 21.2 (00:00) 24.3 11.11 (00:30) 6.67 (00:30) 0 0 0 0 0
01-11-2019 24.8 (22:50) 17 (00:00) 20.9 11.67 (22:40) 6.11 (23:50) 0 0 0 0 0
31-10-2019 23.1 (12:50) 18.1 (01:50) 20.6 8.89 (03:50) 5.56 (11:30) 0 0 0 0 0
30-10-2019 26.2 (12:10) 18.4 (00:00) 22.3 5.28 (15:00) 3.61 (20:40) 0 0 0 0 0
29-10-2019 27.1 (13:20) 19.7 (00:00) 23.4 5.56 (14:30) 3.33 (13:00) 0 0 0 0 0
28-10-2019 26.8 (12:30) 19 (00:00) 22.9 4.44 (15:40) 2.78 (04:10) 0 0 0 0 0
27-10-2019 27.3 (10:40) 20.5 (00:00) 23.9 6.11 (08:10) 3.89 (02:20) 0.6 0.2 0 0.4 0
26-10-2019 23.9 (18:20) 18.7 (00:00) 21.3 20.83 (08:50) 9.72 (08:40) 23.4 0 11.6 11.8 0
25-10-2019 22.9 (15:10) 13.3 (00:00) 18.1 5.28 (14:00) 2.22 (00:10) 0 0 0 0 0
24-10-2019 19.7 (13:20) 13.8 (00:00) 16.8 7.22 (13:40) 5 (06:40) 0 0 0 0 0
23-10-2019 20.4 (10:00) 14 (00:00) 17.2 10.28 (13:10) 6.39 (13:10) 0 0 0 0 0
22-10-2019 21 (15:40) 14.8 (07:00) 17.9 18.06 (17:10) 10.56 (17:10) 0 0 0 0 0
21-10-2019 21.8 (13:20) 15.7 (00:00) 18.7 13.06 (02:50) 7.5 (02:50) 0.2 0.2 0 0 0
20-10-2019 23.5 (11:40) 15.4 (00:00) 19.4 10.83 (14:00) 7.5 (14:10) 12.6 0 0 11.6 1
19-10-2019 24.4 (14:10) 15.4 (00:00) 19.9 10.56 (14:30) 5.83 (13:50) 0 0 0 0 0
18-10-2019 22.6 (12:30) 14.5 (00:00) 18.6 8.33 (12:30) 4.72 (12:30) 0 0 0 0 0
17-10-2019 21.4 (11:40) 14.4 (00:00) 17.9 9.17 (12:10) 6.67 (12:30) 0 0 0 0 0
16-10-2019 18.7 (12:20) 15.5 (00:00) 17.1 6.39 (13:10) 4.17 (13:20) 0 0 0 0 0
15-10-2019 20.3 (13:30) 15.4 (00:00) 17.8 9.72 (19:10) 6.11 (21:10) 0.2 0 0.2 0 0
14-10-2019 21.9 (16:30) 15.5 (00:00) 18.7 10.83 (14:00) 6.39 (14:20) 0 0 0 0 0

Gráficas

Temp. máximas Temp. mínimas Temp. medias Precipitaciones Rachas de viento máximas Velocidades máximas media en intervalos de 10 minutos

Datos horarios

Fecha y hora oficial Temperatura (ºC) Velocidad del viento (km/h) Dirección del viento Racha (km/h) Dirección de racha Precipitación (mm) Presión (hPa) Tendencia (hPa) Humedad (%)
2019-11-12 23:00:00 17.9 6 Noroeste 19 Noroeste 0 -- -- 48
2019-11-12 22:00:00 18.8 9 Noroeste 26 Sur 0 -- -- 41
2019-11-12 21:00:00 19.4 10 Noroeste 29 Noroeste 0 -- -- 41
2019-11-12 20:00:00 19.4 10 Noroeste 30 Sudeste 0 -- -- 53
2019-11-12 19:00:00 19 11 Norte 29 Noroeste 0 -- -- 58
2019-11-12 18:00:00 19.4 8 Oeste 32 Sur 0 -- -- 71
2019-11-12 17:00:00 20.6 14 Sur 46 Sudeste 0 -- -- 68
2019-11-12 16:00:00 21.4 17 Sudeste 43 Sur 0 -- -- 63
2019-11-12 15:00:00 22.6 23 Sudeste 43 Sudeste 0 -- -- 59
2019-11-12 14:00:00 21.5 32 Sudeste 63 Sudeste 0 -- -- 62
2019-11-12 13:00:00 23 22 Sudeste 44 Sudeste 0 -- -- 57
2019-11-12 12:00:00 22.7 19 Sur 49 Sur 0 -- -- 53
2019-11-12 11:00:00 21.2 22 Sur 53 Sur 0 -- -- 64
2019-11-12 10:00:00 21.5 23 Sudeste 44 Sudeste 0 -- -- 64
2019-11-12 09:00:00 19.5 9 Sudeste 20 Noroeste 0 -- -- 67
2019-11-12 08:00:00 16.9 5 Noroeste 25 Oeste 0 -- -- 69
2019-11-12 07:00:00 16.7 17 Noroeste 36 Noroeste 0 -- -- 72
2019-11-12 06:00:00 17.5 22 Noroeste 39 Noroeste 0 -- -- 65
2019-11-12 05:00:00 16.9 24 Noroeste 38 Noroeste 0 -- -- 66
2019-11-12 04:00:00 16.9 23 Noroeste 39 Noroeste 0 -- -- 70
2019-11-12 03:00:00 17.1 25 Noroeste 36 Noroeste 0 -- -- 69
2019-11-12 02:00:00 17.4 20 Noroeste 31 Noroeste 0 -- -- 69
2019-11-12 01:00:00 18 16 Noroeste 32 Noroeste 0 -- -- 62
2019-11-12 00:00:00 17.6 23 Noroeste 35 Noroeste 0 -- -- 70
2019-11-11 23:00:00 17.5 18 Noroeste 31 Oeste 0 -- -- 68
2019-11-11 22:00:00 17.7 19 Noroeste 32 Noroeste 0 -- -- 66
2019-11-11 21:00:00 17.4 21 Noroeste 30 Noroeste 0 -- -- 71
2019-11-11 20:00:00 17.3 9 Oeste 24 Noroeste 0 -- -- 73
2019-11-11 19:00:00 17.8 17 Noroeste 25 Noroeste 0 -- -- 72
2019-11-11 18:00:00 18.8 18 Noroeste 27 Noroeste 0 -- -- 67
2019-11-11 17:00:00 20.3 11 Sur 26 Sur 0 -- -- 62
2019-11-11 16:00:00 23.3 13 Oeste 31 Oeste 0 -- -- 51
2019-11-11 15:00:00 23.4 15 Oeste 36 Sur 0 -- -- 51
2019-11-11 14:00:00 22.5 12 Sur 42 Sudeste 0 -- -- 54
2019-11-11 13:00:00 22.9 21 Sudeste 39 Sudeste 0 -- -- 51
2019-11-11 12:00:00 22.6 19 Sudeste 45 Sudeste 0 -- -- 48
2019-11-11 11:00:00 22.8 22 Sudeste 35 Sudeste 0 -- -- 43
2019-11-11 10:00:00 20.8 20 Sudeste 33 Sudeste 0 -- -- 52
2019-11-11 09:00:00 20 13 Sur 37 Sur 0 -- -- 53
2019-11-11 08:00:00 17.8 12 Sudeste 39 Este 0 -- -- 58
2019-11-11 07:00:00 17.2 9 Sudeste 38 Este 0 -- -- 47
2019-11-11 06:00:00 15.6 13 Norte 26 Nordeste 0 -- -- 63
2019-11-11 05:00:00 15.2 12 Norte 21 Norte 0 -- -- 69
2019-11-11 04:00:00 15.2 6 Noroeste 18 Noroeste 0 -- -- 69
2019-11-11 03:00:00 15.6 13 Noroeste 18 Noroeste 0 -- -- 67
2019-11-11 02:00:00 14.8 13 Norte 16 Norte -- -- -- 73
2019-11-11 01:00:00 15.2 6 Norte 21 Noroeste 0 -- -- 66
2019-11-11 00:00:00 15.6 6 Noroeste 15 Este 0 -- -- 68
2019-11-10 23:00:00 15.2 11 Norte 14 Norte 0 -- -- 64
2019-11-10 22:00:00 16.3 9 Noroeste 21 Noroeste 0 -- -- 66
2019-11-10 21:00:00 17.3 11 Sudeste 35 Sudeste 0 -- -- 68
2019-11-10 20:00:00 18 10 Sudeste 27 Sudeste 0 -- -- 68
2019-11-10 19:00:00 17.8 9 Este 23 Este 0 -- -- 70
2019-11-10 18:00:00 17.7 21 Sudeste 31 Sudeste 0 -- -- 87
2019-11-10 17:00:00 18.5 15 Sudeste 25 Sudeste 0 -- -- 81
2019-11-10 16:00:00 19.7 19 Sudeste 36 Sudeste 0 -- -- 72
2019-11-10 15:00:00 20 26 Sudeste 40 Sudeste 0 -- -- 67
2019-11-10 14:00:00 20.4 25 Sudeste 39 Sudeste 0 -- -- 65
2019-11-10 13:00:00 20.6 25 Sudeste 42 Sudeste 0 -- -- 61
2019-11-10 12:00:00 20.3 25 Sudeste 37 Sudeste 0 -- -- 65
2019-11-10 11:00:00 19.7 29 Sudeste 53 Sudeste 0 -- -- 58
2019-11-10 10:00:00 19 19 Sudeste 40 Sudeste 0 -- -- 58
2019-11-10 09:00:00 17.9 23 Sudeste 46 Sudeste 0 -- -- 60
2019-11-10 08:00:00 16.4 14 Este 34 Este 0 -- -- 64
2019-11-10 07:00:00 16.9 11 Este 45 Nordeste 0 -- -- 66
2019-11-10 06:00:00 16.3 23 Este 41 Nordeste 0 -- -- 60
2019-11-10 05:00:00 16.5 18 Sudeste 33 Sudeste 0 -- -- 65
2019-11-10 04:00:00 17.1 16 Este 50 Este 0 -- -- 68
2019-11-10 03:00:00 16.9 17 Este 45 Sudeste 0 -- -- 65
2019-11-10 02:00:00 16.6 27 Este 49 Sudeste 0 -- -- 64
2019-11-10 01:00:00 16.5 20 Sudeste 44 Sudeste 0 -- -- 71
2019-11-10 00:00:00 16.7 22 Este 59 Sudeste 0 -- -- 67
2019-11-09 23:00:00 16.9 28 Sudeste 50 Sudeste 0 -- -- 67
2019-11-09 22:00:00 16.4 6 Sudeste 51 Sudeste 0 -- -- 61
2019-11-09 21:00:00 17.1 27 Sudeste 48 Sudeste 0 -- -- 64
2019-11-09 20:00:00 17.2 23 Sudeste 58 Sudeste 0 -- -- 68
2019-11-09 19:00:00 17.1 33 Sudeste 61 Sudeste 0 -- -- 65
2019-11-09 18:00:00 17.9 24 Sudeste 58 Sudeste 0 -- -- 65
2019-11-09 17:00:00 18.6 9 Este 56 Sudeste 0 -- -- 53
2019-11-09 16:00:00 18.9 32 Sudeste 55 Sudeste 0 -- -- 62
2019-11-09 15:00:00 19.6 27 Sudeste 52 Sudeste 0 -- -- 60
2019-11-09 14:00:00 20 24 Sudeste 45 Este 0 -- -- 61
2019-11-09 13:00:00 20 16 Este 42 Nordeste 0 -- -- 56
2019-11-09 12:00:00 21 15 Sudeste 42 Nordeste 0 -- -- 50
2019-11-09 11:00:00 20 27 Sudeste 50 Sudeste 0 -- -- 54
2019-11-09 10:00:00 17.9 9 Este 30 Sur 0 -- -- 63
2019-11-09 09:00:00 17.5 11 Este 39 Nordeste 0 -- -- 64
2019-11-09 08:00:00 17.3 21 Este 35 Este 0 -- -- 64
2019-11-09 07:00:00 17.7 13 Nordeste 35 Nordeste 0 -- -- 63
2019-11-09 06:00:00 17.6 17 Este 37 Nordeste 0 -- -- 66
2019-11-09 05:00:00 16.7 17 Nordeste 44 Sudeste 0 -- -- 63
2019-11-09 04:00:00 16.4 35 Sudeste 48 Sudeste 0 -- -- 69
2019-11-09 03:00:00 17.3 13 Este 37 Este 0 -- -- 65
2019-11-09 02:00:00 17.1 14 Este 33 Este 0 -- -- 63
2019-11-09 01:00:00 16.4 9 Este 34 Este 0 -- -- 63
2019-11-09 00:00:00 16.7 13 Este 32 Nordeste 0 -- -- 64
2019-11-08 23:00:00 16.5 15 Este 33 Este 0 -- -- 63
2019-11-08 22:00:00 17.2 10 Este 28 Este 0 -- -- 66
2019-11-08 21:00:00 17.3 17 Este 37 Nordeste 0 -- -- 65
2019-11-08 20:00:00 16.8 18 Este 40 Sudeste 0 -- -- 64
2019-11-08 19:00:00 17.3 17 Este 42 Sudeste 0 -- -- 65
2019-11-08 18:00:00 17.6 20 Este 49 Sudeste 0 -- -- 63
2019-11-08 17:00:00 18.7 25 Sudeste 44 Sudeste 0 -- -- 62
2019-11-08 16:00:00 20.3 15 Este 39 Sudeste 0 -- -- 56
2019-11-08 15:00:00 19.8 28 Sudeste 40 Sudeste 0 -- -- 70
2019-11-08 14:00:00 19.4 27 Sudeste 38 Sudeste 0 -- -- 78
2019-11-08 13:00:00 18.3 28 Sudeste 43 Sudeste 0.6 -- -- 86
2019-11-08 12:00:00 17.8 13 Sudeste 41 Sudeste 0.2 -- -- 94
2019-11-08 11:00:00 20.8 17 Sudeste 31 Sudeste 0 -- -- 75
2019-11-08 10:00:00 20.1 16 Sudeste 31 Sudeste 0 -- -- 79
2019-11-08 09:00:00 17 17 Sudeste 31 Sudeste 0.8 -- -- 90
2019-11-08 08:00:00 17.3 5 Nordeste 14 Norte 0 -- -- 78
2019-11-08 07:00:00 17.2 3 Sudoeste 12 Norte 0 -- -- 78
2019-11-08 06:00:00 17.4 8 Sudeste 27 Sudeste 0 -- -- 73
2019-11-08 05:00:00 17.6 14 Sudeste 24 Sudeste 0 -- -- 75
2019-11-08 04:00:00 17.4 8 Sudeste 26 Sudeste 0 -- -- 73
2019-11-08 03:00:00 17.8 9 Este 27 Este 0 -- -- 69
2019-11-08 02:00:00 17.9 10 Este 36 Este 0 -- -- 68
2019-11-08 01:00:00 17.3 7 Este 24 Sur 0 -- -- 77
2019-11-08 00:00:00 17.4 9 Sudeste 23 Este 0 -- -- 80
2019-11-07 23:00:00 17.3 12 Sudeste 24 Este 0 -- -- 82
2019-11-07 22:00:00 17.4 12 Sur 25 Sudeste 0 -- -- 82
2019-11-07 21:00:00 16.4 10 Sudeste 29 Sudeste 0 -- -- 94
2019-11-07 20:00:00 17.4 19 Sur 38 Nordeste 0 -- -- 88
2019-11-07 19:00:00 17.3 14 Sudeste 30 Sudeste 0 -- -- 83
2019-11-07 18:00:00 18.2 17 Sudeste 36 Sudeste 0 -- -- 76
2019-11-07 17:00:00 19.4 22 Sudeste 31 Sudeste 0 -- -- 68
2019-11-07 16:00:00 20.2 26 Sudeste 44 Sudeste 0 -- -- 58
2019-11-07 15:00:00 20.3 20 Sudeste 35 Sudeste 0 -- -- 69
2019-11-07 14:00:00 20.3 26 Sudeste 43 Sudeste 0 -- -- 68
2019-11-07 13:00:00 21.4 21 Sudeste 41 Sudeste 0 -- -- 55
2019-11-07 12:00:00 20.8 22 Sudeste 42 Sudeste 0 -- -- 61
2019-11-07 11:00:00 19.8 19 Sudeste 38 Sudeste 0 -- -- 62
2019-11-07 10:00:00 19.2 20 Sudeste 38 Sudeste 0 -- -- 62
2019-11-07 09:00:00 18 15 Este 35 Este 0 -- -- 65
2019-11-07 08:00:00 17.7 8 Sudeste 34 Nordeste 0 -- -- 65
2019-11-07 07:00:00 17.6 21 Nordeste 42 Nordeste 0 -- -- 59
2019-11-07 06:00:00 17.4 24 Nordeste 40 Nordeste 0 -- -- 57
2019-11-07 05:00:00 16.9 15 Sudeste 31 Nordeste 0 -- -- 67
2019-11-07 04:00:00 17.4 16 Nordeste 37 Nordeste 0 -- -- 59
2019-11-07 03:00:00 17.3 13 Nordeste 37 Nordeste 0 -- -- 58
2019-11-07 02:00:00 16.8 27 Este 40 Este 0 -- -- 66
2019-11-07 01:00:00 16.8 19 Este 34 Este 0 -- -- 68
2019-11-07 00:00:00 15.4 20 Sudeste 39 Sudeste 0 -- -- 90
2019-11-06 23:00:00 16.5 27 Sudeste 38 Sudeste 0 -- -- 75
2019-11-06 22:00:00 18 19 Nordeste 45 Este 0 -- -- 59
2019-11-06 21:00:00 17.7 26 Este 46 Este 0 -- -- 65
2019-11-06 20:00:00 17.7 12 Este 47 Sudeste 0 -- -- 64
2019-11-06 19:00:00 17.2 27 Este 53 Este 0 -- -- 67
2019-11-06 18:00:00 17.6 28 Este 56 Este 0 -- -- 63
2019-11-06 17:00:00 19.9 10 Sudeste 48 Sudeste 0 -- -- 56
2019-11-06 16:00:00 19.9 30 Este 66 Sudeste 0 -- -- 55
2019-11-06 15:00:00 20.6 29 Sudeste 57 Este 0 -- -- 48
2019-11-06 14:00:00 21.4 22 Sudeste 54 Sudeste 0 -- -- 49
2019-11-06 13:00:00 21.6 12 Sur 30 Sudeste 0 -- -- 54
2019-11-06 12:00:00 21.1 15 Sudeste 65 Sudeste 0 -- -- 52
2019-11-06 11:00:00 20.8 17 Sudeste 41 Sudeste 0 -- -- 52
2019-11-06 10:00:00 19.9 23 Sudeste 35 Sudeste 0 -- -- 62
2019-11-06 09:00:00 18.3 10 Sudoeste 24 Sur 0 -- -- 64
2019-11-06 08:00:00 16 17 Norte 26 Norte 0 -- -- 64
2019-11-06 07:00:00 15.8 6 Sur 31 Sudeste 0 -- -- 67
2019-11-06 06:00:00 16 9 Sur 21 Este 0 -- -- 72
2019-11-06 05:00:00 16.6 8 Sudeste 30 Norte 0 -- -- 71
2019-11-06 04:00:00 16.3 6 Este 23 Nordeste 0 -- -- 63
2019-11-06 03:00:00 16.4 5 Este 34 Sudeste 0 -- -- 69
2019-11-06 02:00:00 16.1 25 Sudeste 36 Sudeste 0 -- -- 76
2019-11-06 01:00:00 15.7 18 Sudeste 31 Sudeste 0 -- -- 81
2019-11-06 00:00:00 16.1 23 Sudeste 37 Sudeste 0 -- -- 82
2019-11-05 23:00:00 16.7 28 Sudeste 39 Sudeste 0 -- -- 82
2019-11-05 22:00:00 17.9 19 Sudeste 31 Sudeste 0 -- -- 80
2019-11-05 21:00:00 18.5 15 Sudeste 36 Nordeste 0 -- -- 79
2019-11-05 20:00:00 20.1 11 Nordeste 28 Nordeste 0 -- -- 65
2019-11-05 19:00:00 20.2 13 Norte 49 Nordeste 0 -- -- 63
2019-11-05 18:00:00 20.6 24 Norte 45 Nordeste 0 -- -- 55
2019-11-05 17:00:00 21.9 13 Norte 30 Nordeste 0 -- -- 52
2019-11-05 16:00:00 21.1 9 Sur 20 Sur 0 -- -- 68
2019-11-05 15:00:00 22.5 12 Sur 25 Sudoeste 0 -- -- 65
2019-11-05 14:00:00 22.7 13 Oeste 48 Sudeste 0 -- -- 63
2019-11-05 13:00:00 23.5 13 Noroeste 41 Sudoeste 0 -- -- 59
2019-11-05 12:00:00 23.4 17 Sudeste 38 Sudeste 0 -- -- 51
2019-11-05 11:00:00 22.6 9 Sur 18 Sur 0 -- -- 61
2019-11-05 10:00:00 21.5 13 Sudoeste 21 Sur 0 -- -- 63
2019-11-05 09:00:00 20.6 18 Sudeste 23 Sur 0 -- -- 67
2019-11-05 08:00:00 18.5 5 Norte 23 Noroeste 0 -- -- 71
2019-11-05 07:00:00 17.4 14 Noroeste 20 Noroeste 0 -- -- 76
2019-11-05 06:00:00 16.6 6 Norte 14 Oeste 0 -- -- 80
2019-11-05 05:00:00 17.6 4 Este 30 Nordeste 0 -- -- 74
2019-11-05 04:00:00 18.7 17 Nordeste 53 Nordeste 0 -- -- 58
2019-11-05 03:00:00 18.4 7 Este 22 Norte 0 -- -- 69
2019-11-05 02:00:00 19.7 10 Norte 53 Nordeste 0 -- -- 59
2019-11-05 01:00:00 19.6 29 Nordeste 64 Norte 0 -- -- 58
2019-11-05 00:00:00 19.4 28 Nordeste 58 Norte 0 -- -- 59
2019-11-04 23:00:00 18.4 14 Nordeste 26 Norte 0 -- -- 73
2019-11-04 22:00:00 18.2 10 Este 26 Nordeste 0 -- -- 79
2019-11-04 21:00:00 18.1 5 Sudeste 20 Oeste 0 -- -- 81
2019-11-04 20:00:00 18.6 17 Noroeste 26 Noroeste 0 -- -- 79
2019-11-04 19:00:00 19.3 16 Noroeste 31 Noroeste 0 -- -- 75
2019-11-04 18:00:00 20.6 22 Noroeste 30 Noroeste 0 -- -- 68
2019-11-04 17:00:00 23.5 19 Noroeste 31 Noroeste 0 -- -- 52
2019-11-04 16:00:00 24.3 16 Noroeste 27 Sur 0 -- -- 52
2019-11-04 15:00:00 23.9 9 Sur 33 Sudeste 0 -- -- 54
2019-11-04 14:00:00 23.5 10 Sur 32 Sur 0 -- -- 54
2019-11-04 13:00:00 23.6 12 Sur 32 Sur 0 -- -- 56
2019-11-04 12:00:00 23.7 13 Oeste 23 Oeste 0 -- -- 56
2019-11-04 11:00:00 22.1 9 Oeste 17 Sudoeste 0 -- -- 67
2019-11-04 10:00:00 20.8 6 Sudoeste 15 Sur 0 -- -- 73
2019-11-04 09:00:00 19.6 4 Sudoeste 10 Oeste 0 -- -- 78
2019-11-04 08:00:00 17.4 4 Oeste 10 Norte 0 -- -- 87
2019-11-04 07:00:00 16.3 3 Norte 9 Norte 0 -- -- 89
2019-11-04 06:00:00 16.6 6 Nordeste 13 Oeste 0 -- -- 90
2019-11-04 05:00:00 16.8 8 Noroeste 14 Este 0 -- -- 88
2019-11-04 04:00:00 17.2 8 Este 17 Este 0 -- -- 88
2019-11-04 03:00:00 17.7 9 Este 18 Sudeste 0 -- -- 83
2019-11-04 02:00:00 17.8 10 Este 17 Este 0 -- -- 84
2019-11-04 01:00:00 18 4 Norte 14 Sudeste 0 -- -- 82
2019-11-04 00:00:00 18.9 4 Sudeste 30 Norte 0 -- -- 73
2019-11-03 23:00:00 18.8 18 Noroeste 30 Norte 0 -- -- 76
2019-11-03 22:00:00 20.5 12 Noroeste 42 Nordeste 0 -- -- 68
2019-11-03 21:00:00 23.5 13 Nordeste 32 Norte 0 -- -- 27
2019-11-03 20:00:00 19.4 8 Noroeste 30 Nordeste 0 -- -- 69
2019-11-03 19:00:00 18.9 18 Noroeste 35 Norte 0 -- -- 88
2019-11-03 18:00:00 19.8 14 Noroeste 29 Noroeste 0 -- -- 85
2019-11-03 17:00:00 21.9 11 Oeste 27 Noroeste 0 -- -- 76
2019-11-03 16:00:00 22.7 16 Oeste 26 Noroeste 0 -- -- 74
2019-11-03 15:00:00 24.1 13 Oeste 28 Noroeste 0 -- -- 67
2019-11-03 14:00:00 24.4 21 Oeste 30 Oeste 0 -- -- 66
2019-11-03 13:00:00 24.2 12 Oeste 25 Sur 0 -- -- 66
2019-11-03 12:00:00 22.7 11 Sur 25 Sur 0 -- -- 73
2019-11-03 11:00:00 23.5 7 Sur 16 Sudoeste 0 -- -- 70
2019-11-03 10:00:00 22.8 7 Sudoeste 14 Oeste 0 -- -- 71
2019-11-03 09:00:00 21.5 9 Oeste 15 Oeste 0 -- -- 73
2019-11-03 08:00:00 20.1 4 Noroeste 18 Noroeste 0 -- -- 70
2019-11-03 07:00:00 19 10 Noroeste 15 Noroeste 0 -- -- 76
2019-11-03 06:00:00 18.9 4 Noroeste 12 Noroeste 0 -- -- 59
2019-11-03 05:00:00 19.9 3 Este 9 Noroeste 0 -- -- 55
2019-11-03 04:00:00 20.9 8 Norte 12 Norte 0 -- -- 49
2019-11-03 03:00:00 20.3 10 Noroeste 13 Noroeste 0 -- -- 51
2019-11-03 02:00:00 21 2 Noroeste 13 Norte 0 -- -- 50
2019-11-03 01:00:00 21 0 Calma 10 Nordeste 0 -- -- 51
2019-11-03 00:00:00 21.7 4 Nordeste 9 Nordeste 0 -- -- 47
2019-11-02 23:00:00 21.5 4 Norte 12 Norte 0 -- -- 47
2019-11-02 22:00:00 21.8 4 Norte 13 Norte 0 -- -- 48
2019-11-02 21:00:00 22 4 Norte 8 Nordeste 0 -- -- 50
2019-11-02 20:00:00 22.9 3 Oeste 6 Noroeste 0 -- -- 49
2019-11-02 19:00:00 23.4 2 Sur 12 Noroeste 0 -- -- 53
2019-11-02 18:00:00 24.1 0 Calma 10 Oeste 0 -- -- 56
2019-11-02 17:00:00 25.7 8 Oeste 15 Oeste 0 -- -- 51
2019-11-02 16:00:00 26.7 10 Oeste 17 Oeste 0 -- -- 43
2019-11-02 15:00:00 26.5 6 Sur 17 Sur 0 -- -- 45
2019-11-02 14:00:00 26.8 6 Sudoeste 14 Sudoeste 0 -- -- 42
2019-11-02 13:00:00 27.1 9 Sudeste 15 Sur 0 -- -- 45
2019-11-02 12:00:00 27 6 Sur 16 Sudeste 0 -- -- 44
2019-11-02 11:00:00 27.2 6 Sur 15 Sur 0 -- -- 46
2019-11-02 10:00:00 26.5 4 Sudoeste 12 Este 0 -- -- 48
2019-11-02 09:00:00 25.1 3 Este 17 Sudeste 0 -- -- 45
2019-11-02 08:00:00 23.1 7 Este 15 Este 0 -- -- 46
2019-11-02 07:00:00 22.6 7 Sudeste 28 Sudeste 0 -- -- 47
2019-11-02 06:00:00 22.5 12 Sudeste 26 Sudeste 0 -- -- 50
2019-11-02 05:00:00 22.3 12 Sudeste 29 Sudeste 0 -- -- 52
2019-11-02 04:00:00 21.5 3 Este 19 Este 0 -- -- 54
2019-11-02 03:00:00 21.9 5 Noroeste 18 Sur 0 -- -- 54
2019-11-02 02:00:00 22.4 10 Sudeste 22 Sudeste 0 -- -- 51
2019-11-02 01:00:00 23.7 7 Sur 40 Sudeste 0 -- -- 48
2019-11-02 00:00:00 24.5 16 Sudeste 42 Sudeste 0 -- -- 38
2019-11-01 23:00:00 24.8 18 Sudeste 42 Sudeste 0 -- -- 36
2019-11-01 22:00:00 23.5 15 Sudeste 29 Sudeste 0 -- -- 43
2019-11-01 21:00:00 21.8 6 Sudeste 13 Sur 0 -- -- 61
2019-11-01 20:00:00 21 3 Este 9 Este 0 -- -- 59
2019-11-01 19:00:00 19 5 Sudeste 15 Sur 0 -- -- 89
2019-11-01 18:00:00 19.8 4 Sudeste 12 Sur 0 -- -- 87
2019-11-01 17:00:00 21.8 7 Sudeste 14 Sudeste 0 -- -- 78
2019-11-01 16:00:00 22.3 8 Sudeste 17 Sudeste 0 -- -- 75
2019-11-01 15:00:00 22.2 8 Sudeste 22 Sur 0 -- -- 77
2019-11-01 14:00:00 22.4 13 Sur 28 Sudeste 0 -- -- 74
2019-11-01 13:00:00 22.6 12 Sur 26 Sur 0 -- -- 74
2019-11-01 12:00:00 22.8 15 Sur 28 Sur 0 -- -- 70
2019-11-01 11:00:00 22.5 19 Sudeste 23 Sudeste 0 -- -- 71
2019-11-01 10:00:00 22.2 11 Sudeste 17 Sur 0 -- -- 79
2019-11-01 09:00:00 19.4 8 Sudeste 16 Sudeste 0 -- -- 91
2019-11-01 08:00:00 17.9 8 Nordeste 14 Norte 0 -- -- 81
2019-11-01 07:00:00 17 3 Nordeste 9 Este 0 -- -- 90
2019-11-01 06:00:00 17.9 3 Sudeste 15 Este 0 -- -- 86
2019-11-01 05:00:00 18.7 8 Sudeste 19 Sudeste 0 -- -- 88
2019-11-01 04:00:00 18.4 5 Este 12 Este 0 -- -- 84
2019-11-01 03:00:00 18.8 3 Sur 14 Sudeste 0 -- -- 83
2019-11-01 02:00:00 18.7 2 Norte 26 Sudeste 0 -- -- 81
2019-11-01 01:00:00 19.7 4 Sur 22 Este 0 -- -- 74
2019-11-01 00:00:00 19.7 4 Sudeste 14 Este 0 -- -- 75
2019-10-31 23:00:00 19.4 5 Sudoeste 27 Sudeste 0 -- -- 80
2019-10-31 22:00:00 19.3 4 Sur 17 Sudoeste 0 -- -- 80
2019-10-31 21:00:00 18.6 4 Oeste 12 Noroeste 0 -- -- 88
2019-10-31 20:00:00 18.8 5 Noroeste 11 Noroeste 0 -- -- 88
2019-10-31 19:00:00 19.2 10 Noroeste 14 Noroeste 0 -- -- 87
2019-10-31 18:00:00 19.7 3 Sudoeste 13 Sudeste 0 -- -- 85
2019-10-31 17:00:00 21.2 7 Sur 15 Sur 0 -- -- 79
2019-10-31 16:00:00 22.4 7 Sur 21 Sur 0 -- -- 72
2019-10-31 15:00:00 22.7 11 Sudeste 21 Sur 0 -- -- 73
2019-10-31 14:00:00 22.9 10 Sur 21 Sur 0 -- -- 72
2019-10-31 13:00:00 22.9 13 Sudeste 26 Sudeste 0 -- -- 71
2019-10-31 12:00:00 22.7 17 Sudeste 30 Sur 0 -- -- 76
2019-10-31 11:00:00 22.7 17 Sudeste 24 Sudeste 0 -- -- 73
2019-10-31 10:00:00 22.3 15 Sur 24 Sur 0 -- -- 77
2019-10-31 09:00:00 21.7 7 Sudoeste 15 Noroeste 0 -- -- 77
2019-10-31 08:00:00 19.8 6 Noroeste 15 Noroeste 0 -- -- 82
2019-10-31 07:00:00 20.3 3 Sudoeste 29 Sudeste 0 -- -- 74
2019-10-31 06:00:00 21.3 10 Sudeste 28 Sur 0 -- -- 66
2019-10-31 05:00:00 20.8 9 Este 24 Sudeste 0 -- -- 61
2019-10-31 04:00:00 21.7 12 Sudeste 32 Sudeste 0 -- -- 59
2019-10-31 03:00:00 21.3 8 Este 18 Sudeste 0 -- -- 62
2019-10-31 02:00:00 18.4 4 Nordeste 9 Sudeste 0 -- -- 76
2019-10-31 01:00:00 18.8 5 Norte 9 Noroeste 0 -- -- 76
2019-10-31 00:00:00 18.4 0 Calma 6 Noroeste 0 -- -- 80
2019-10-30 23:00:00 18.7 0 Calma 8 Sudeste 0 -- -- 80
2019-10-30 22:00:00 19.2 4 Sudeste 10 Noroeste 0 -- -- 81
2019-10-30 21:00:00 19.4 6 Noroeste 18 Noroeste 0 -- -- 82
2019-10-30 20:00:00 19.5 10 Noroeste 13 Noroeste 0 -- -- 88
2019-10-30 19:00:00 19.8 7 Noroeste 12 Sur 0 -- -- 91
2019-10-30 18:00:00 20.2 6 Sudeste 13 Sur 0 -- -- 92
2019-10-30 17:00:00 21 9 Sur 14 Sur 0 -- -- 88
2019-10-30 16:00:00 22.1 9 Sur 17 Sudeste 0 -- -- 83
2019-10-30 15:00:00 23.2 10 Sur 19 Sur 0 -- -- 70
2019-10-30 14:00:00 23.8 9 Sur 18 Oeste 0 -- -- 72
2019-10-30 13:00:00 25 6 Sudoeste 16 Sudoeste 0 -- -- 62
2019-10-30 12:00:00 26.1 9 Sudoeste 16 Oeste 0 -- -- 57
2019-10-30 11:00:00 25.8 8 Sudoeste 13 Sudoeste 0 -- -- 61
2019-10-30 10:00:00 25.3 6 Sudoeste 12 Sur 0 -- -- 56
2019-10-30 09:00:00 24.5 5 Oeste 10 Sudoeste 0 -- -- 52
2019-10-30 08:00:00 21.7 3 Sudeste 13 Norte 0 -- -- 62
2019-10-30 07:00:00 20.6 9 Noroeste 12 Norte 0 -- -- 64
2019-10-30 06:00:00 20.1 2 Noroeste 9 Norte 0 -- -- 67
2019-10-30 05:00:00 19.4 3 Noroeste 10 Norte 0 -- -- 71
2019-10-30 04:00:00 19.1 2 Noroeste 9 Norte 0 -- -- 73
2019-10-30 03:00:00 18.9 4 Norte 8 Noroeste 0 -- -- 75
2019-10-30 02:00:00 19.1 4 Norte 8 Norte 0 -- -- 74
2019-10-30 01:00:00 19.8 3 Nordeste 10 Norte 0 -- -- 73
2019-10-30 00:00:00 19.7 4 Norte 8 Nordeste 0 -- -- 73
2019-10-29 23:00:00 20 5 Nordeste 8 Nordeste 0 -- -- 72
2019-10-29 22:00:00 20.4 3 Norte 8 Norte 0 -- -- 73
2019-10-29 21:00:00 20.8 3 Norte 6 Nordeste 0 -- -- 73
2019-10-29 20:00:00 21.4 0 Calma 4 Norte 0 -- -- 72
2019-10-29 19:00:00 22.7 2 Oeste 5 Sudeste 0 -- -- 69
2019-10-29 18:00:00 23.2 0 Calma 9 Sudeste 0 -- -- 68
2019-10-29 17:00:00 24 5 Sur 11 Sur 0 -- -- 67
2019-10-29 16:00:00 25.2 7 Sur 14 Sur 0 -- -- 61
2019-10-29 15:00:00 25.6 7 Sur 20 Sudeste 0 -- -- 58
2019-10-29 14:00:00 26.7 12 Sudeste 19 Sudeste 0 -- -- 55
2019-10-29 13:00:00 27 12 Sur 17 Sur 0 -- -- 54
2019-10-29 12:00:00 26.6 9 Sur 17 Sur 0 -- -- 53
2019-10-29 11:00:00 26.1 8 Sur 13 Sur 0 -- -- 53
2019-10-29 10:00:00 25.9 5 Sur 9 Sur 0 -- -- 54
2019-10-29 09:00:00 25.1 5 Sudoeste 8 Oeste 0 -- -- 53
2019-10-29 08:00:00 21.6 3 Este 9 Nordeste 0 -- -- 63
2019-10-29 07:00:00 20.1 3 Este 10 Nordeste 0 -- -- 67
2019-10-29 06:00:00 20.3 6 Nordeste 13 Nordeste 0 -- -- 65
2019-10-29 05:00:00 20.3 8 Nordeste 12 Nordeste 0 -- -- 66
2019-10-29 04:00:00 20.2 6 Nordeste 12 Nordeste 0 -- -- 68
2019-10-29 03:00:00 20.4 6 Nordeste 12 Nordeste 0 -- -- 68
2019-10-29 02:00:00 20.6 8 Nordeste 14 Nordeste 0 -- -- 67
2019-10-29 01:00:00 21.3 6 Este 14 Nordeste 0 -- -- 65
2019-10-29 00:00:00 21.6 5 Este 10 Nordeste 0 -- -- 66
2019-10-28 23:00:00 21.6 5 Este 9 Nordeste 0 -- -- 66
2019-10-28 22:00:00 21.8 5 Este 9 Este 0 -- -- 66
2019-10-28 21:00:00 22 5 Este 9 Nordeste 0 -- -- 68
2019-10-28 20:00:00 22.1 4 Norte 9 Norte 0 -- -- 72
2019-10-28 19:00:00 22.7 8 Nordeste 10 Nordeste 0 -- -- 70
2019-10-28 18:00:00 24.1 3 Sudeste 8 Sur 0 -- -- 64
2019-10-28 17:00:00 25.4 5 Sur 13 Sudoeste 0 -- -- 56
2019-10-28 16:00:00 25.4 7 Sudoeste 16 Sur 0 -- -- 59
2019-10-28 15:00:00 26.5 7 Sur 14 Sur 0 -- -- 59
2019-10-28 14:00:00 26.4 8 Sur 14 Sur 0 -- -- 62
2019-10-28 13:00:00 26.8 8 Sudoeste 15 Sudoeste 0 -- -- 60
2019-10-28 12:00:00 26.1 5 Sudoeste 12 Sur 0 -- -- 62
2019-10-28 11:00:00 25.7 7 Sur 12 Sur 0 -- -- 58
2019-10-28 10:00:00 25.1 3 Sudoeste 9 Sur 0 -- -- 56
2019-10-28 09:00:00 24.4 4 Sur 8 Sudeste 0 -- -- 59
2019-10-28 08:00:00 19.9 5 Nordeste 11 Norte 0 -- -- 71
2019-10-28 07:00:00 19.1 5 Norte 10 Norte 0 -- -- 74
2019-10-28 06:00:00 19.2 0 Calma 10 Nordeste 0 -- -- 73
2019-10-28 05:00:00 19.5 5 Norte 12 Norte 0 -- -- 70
2019-10-28 04:00:00 19.7 8 Norte 11 Norte 0 -- -- 72
2019-10-28 03:00:00 19.7 0 Calma 8 Nordeste 0 -- -- 72
2019-10-28 02:00:00 19.8 3 Este 9 Norte 0 -- -- 72
2019-10-28 01:00:00 19.9 4 Nordeste 9 Norte 0 -- -- 74
2019-10-28 00:00:00 20.5 2 Nordeste 8 Nordeste 0 -- -- 73
2019-10-27 23:00:00 21.7 3 Este 7 Nordeste 0 -- -- 65
2019-10-27 22:00:00 22.3 7 Nordeste 14 Nordeste 0 -- -- 62
2019-10-27 21:00:00 23.6 9 Nordeste 13 Nordeste 0 -- -- 55
2019-10-27 20:00:00 23.2 7 Este 11 Nordeste 0 -- -- 61
2019-10-27 19:00:00 23.1 7 Este 13 Sudeste 0 -- -- 64
2019-10-27 18:00:00 22.4 5 Este 12 Sudeste 0 -- -- 71
2019-10-27 17:00:00 23.4 6 Sudeste 10 Nordeste 0 -- -- 71
2019-10-27 16:00:00 22.9 5 Este 10 Sudeste 0.2 -- -- 74
2019-10-27 15:00:00 24 8 Sudeste 13 Sudeste 0.2 -- -- 69
2019-10-27 14:00:00 25 5 Sudeste 13 Sudeste 0 -- -- 60
2019-10-27 13:00:00 25.1 0 Calma 9 Este 0 -- -- 62
2019-10-27 12:00:00 25.6 5 Sudeste 9 Sudeste 0 -- -- 64
2019-10-27 11:00:00 25.5 6 Sudeste 10 Sudeste 0 -- -- 66
2019-10-27 10:00:00 25.8 5 Este 10 Norte 0 -- -- 58
2019-10-27 09:00:00 25.9 4 Nordeste 22 Norte 0 -- -- 55
2019-10-27 08:00:00 24 13 Norte 20 Noroeste 0 -- -- 60
2019-10-27 07:00:00 23.2 5 Nordeste 17 Nordeste 0 -- -- 65
2019-10-27 06:00:00 22.8 6 Nordeste 12 Nordeste 0 -- -- 63
2019-10-27 05:00:00 23.3 6 Noroeste 18 Nordeste 0 -- -- 65
2019-10-27 04:00:00 22.9 10 Nordeste 15 Nordeste 0 -- -- 65
2019-10-27 03:00:00 22.3 11 Nordeste 20 Nordeste 0 -- -- 73
2019-10-27 02:00:00 22.4 2 Norte 12 Nordeste 0.2 -- -- 73
2019-10-27 01:00:00 22.5 8 Norte 14 Norte 0 -- -- 75
2019-10-27 00:00:00 22.6 10 Norte 18 Norte 0 -- -- 73
2019-10-26 23:00:00 22.2 11 Norte 16 Noroeste 0 -- -- 76
2019-10-26 22:00:00 22.6 14 Noroeste 22 Noroeste 0 -- -- 72
2019-10-26 21:00:00 22.5 10 Noroeste 18 Noroeste 0 -- -- 72
2019-10-26 20:00:00 22.6 4 Este 10 Nordeste 0 -- -- 74
2019-10-26 19:00:00 23.5 9 Norte 10 Norte 0 -- -- 75
2019-10-26 18:00:00 23.7 4 Norte 10 Norte 0 -- -- 73
2019-10-26 17:00:00 22.6 8 Noroeste 10 Noroeste 0 -- -- 77
2019-10-26 16:00:00 22.4 3 Sudoeste 18 Este 0 -- -- 81
2019-10-26 15:00:00 21.8 10 Nordeste 28 Nordeste 0.4 -- -- 75
2019-10-26 14:00:00 19 9 Norte 45 Noroeste 11.4 -- -- 92
2019-10-26 13:00:00 22.1 20 Nordeste 28 Nordeste 0 -- -- 77
2019-10-26 12:00:00 20.8 10 Norte 15 Nordeste 1.4 -- -- 83
2019-10-26 11:00:00 21.4 3 Norte 20 Nordeste 0 -- -- 86
2019-10-26 10:00:00 19.9 12 Norte 23 Nordeste 1.8 -- -- 87
2019-10-26 09:00:00 19.2 9 Este 75 Norte 8.4 -- -- 84
2019-10-26 08:00:00 21.4 3 Sudeste 8 Noroeste 0 -- -- 54
2019-10-26 07:00:00 21.4 6 Norte 9 Norte 0 -- -- 54
2019-10-26 06:00:00 21.4 4 Norte 10 Norte 0 -- -- 49
2019-10-26 05:00:00 20.8 6 Noroeste 12 Norte 0 -- -- 50
2019-10-26 04:00:00 20.1 0 Calma 8 Norte 0 -- -- 54
2019-10-26 03:00:00 20 3 Norte 10 Norte 0 -- -- 53
2019-10-26 02:00:00 20.6 2 Sudeste 9 Norte 0 -- -- 52
2019-10-26 01:00:00 20 4 Noroeste 11 Noroeste 0 -- -- 51
2019-10-26 00:00:00 19.9 5 Este 12 Norte 0 -- -- 54
2019-10-25 23:00:00 19.5 3 Oeste 9 Norte 0 -- -- 53
2019-10-25 22:00:00 19.1 6 Norte 12 Norte 0 -- -- 54
2019-10-25 21:00:00 19.5 3 Nordeste 8 Nordeste 0 -- -- 53
2019-10-25 20:00:00 19.9 3 Este 14 Este 0 -- -- 58
2019-10-25 19:00:00 21 6 Sudeste 10 Sudeste 0 -- -- 54
2019-10-25 18:00:00 21.7 5 Este 9 Este 0 -- -- 51
2019-10-25 17:00:00 22.5 7 Sudeste 14 Sudeste 0 -- -- 45
2019-10-25 16:00:00 22.8 4 Oeste 15 Noroeste 0 -- -- 40
2019-10-25 15:00:00 22.7 7 Noroeste 13 Norte 0 -- -- 37
2019-10-25 14:00:00 20 5 Noroeste 19 Noroeste 0 -- -- 79
2019-10-25 13:00:00 19 3 Sudeste 9 Sudeste 0 -- -- 83
2019-10-25 12:00:00 18.5 4 Sur 9 Sur 0 -- -- 83
2019-10-25 11:00:00 17.9 4 Sudeste 10 Norte 0 -- -- 84
2019-10-25 10:00:00 17.3 4 Este 10 Norte 0 -- -- 82
2019-10-25 09:00:00 16 2 Nordeste 8 Norte 0 -- -- 70
2019-10-25 08:00:00 14.1 5 Norte 9 Noroeste 0 -- -- 85
2019-10-25 07:00:00 14.3 3 Nordeste 7 Norte 0 -- -- 87
2019-10-25 06:00:00 14.4 0 Calma 9 Nordeste 0 -- -- 81
2019-10-25 05:00:00 14.4 3 Oeste 10 Norte 0 -- -- 82
2019-10-25 04:00:00 14.2 4 Nordeste 12 Nordeste 0 -- -- 83
2019-10-25 03:00:00 13.9 6 Nordeste 12 Norte 0 -- -- 80
2019-10-25 02:00:00 14.3 5 Este 12 Nordeste 0 -- -- 80
2019-10-25 01:00:00 13.6 6 Nordeste 12 Nordeste 0 -- -- 83
2019-10-25 00:00:00 13.8 8 Nordeste 11 Nordeste 0 -- -- 85
2019-10-24 23:00:00 14.2 8 Nordeste 12 Nordeste 0 -- -- 84
2019-10-24 22:00:00 14.6 10 Nordeste 14 Nordeste 0 -- -- 80
2019-10-24 21:00:00 16.3 4 Sudeste 8 Sudeste 0 -- -- 79
2019-10-24 20:00:00 16.4 7 Sudeste 12 Sur 0 -- -- 78
2019-10-24 19:00:00 16.9 8 Sudeste 15 Sudeste 0 -- -- 74
2019-10-24 18:00:00 17.4 10 Sur 19 Sudeste 0 -- -- 72
2019-10-24 17:00:00 18.3 12 Sudeste 18 Sudeste 0 -- -- 68
2019-10-24 16:00:00 18.6 11 Sudeste 20 Sudeste 0 -- -- 67
2019-10-24 15:00:00 19.1 14 Sur 26 Sudeste 0 -- -- 63
2019-10-24 14:00:00 19 15 Sur 26 Sur 0 -- -- 64
2019-10-24 13:00:00 19 15 Sudeste 25 Sur 0 -- -- 64
2019-10-24 12:00:00 18.6 14 Sudeste 21 Sudeste 0 -- -- 68
2019-10-24 11:00:00 18 10 Sur 19 Sur 0 -- -- 68
2019-10-24 10:00:00 16.6 4 Sur 10 Sudeste 0 -- -- 77
2019-10-24 09:00:00 15.3 8 Nordeste 19 Nordeste 0 -- -- 72
2019-10-24 08:00:00 14.4 17 Nordeste 22 Nordeste 0 -- -- 68
2019-10-24 07:00:00 14.5 13 Nordeste 21 Nordeste 0 -- -- 70
2019-10-24 06:00:00 14 15 Norte 22 Norte 0 -- -- 75
2019-10-24 05:00:00 15 5 Nordeste 19 Nordeste 0 -- -- 75
2019-10-24 04:00:00 14.2 12 Nordeste 15 Nordeste 0 -- -- 73
2019-10-24 03:00:00 15.5 5 Este 13 Sudeste 0 -- -- 75
2019-10-24 02:00:00 15.9 5 Este 14 Este 0 -- -- 72
2019-10-24 01:00:00 15.8 5 Este 16 Nordeste 0 -- -- 73
2019-10-24 00:00:00 15.3 8 Nordeste 14 Este 0 -- -- 71
2019-10-23 23:00:00 16.3 10 Sudeste 19 Este 0 -- -- 74
2019-10-23 22:00:00 15.5 10 Nordeste 15 Este 0 -- -- 68
2019-10-23 21:00:00 16 12 Sudeste 24 Sudeste 0 -- -- 76
2019-10-23 20:00:00 16.6 17 Sudeste 27 Sudeste 0 -- -- 76
2019-10-23 19:00:00 17 17 Sudeste 24 Sudeste 0 -- -- 75
2019-10-23 18:00:00 17.4 13 Sudeste 26 Sudeste 0 -- -- 74
2019-10-23 17:00:00 17.6 17 Sudeste 24 Sur 0 -- -- 76
2019-10-23 16:00:00 17.7 17 Sudeste 28 Sur 0 -- -- 74
2019-10-23 15:00:00 18.1 18 Sur 28 Sudeste 0 -- -- 70
2019-10-23 14:00:00 18.6 19 Sur 37 Sur 0 -- -- 70
2019-10-23 13:00:00 19.8 21 Sudeste 29 Sur 0 -- -- 64
2019-10-23 12:00:00 19.4 19 Sur 29 Sudeste 0 -- -- 67
2019-10-23 11:00:00 19.6 19 Sudeste 32 Sur 0 -- -- 65
2019-10-23 10:00:00 20.4 13 Sur 28 Este 0 -- -- 51
2019-10-23 09:00:00 17.8 8 Sudeste 19 Este 0 -- -- 60
2019-10-23 08:00:00 15.6 8 Oeste 30 Noroeste 0 -- -- 71
2019-10-23 07:00:00 14.9 8 Nordeste 14 Noroeste 0 -- -- 74
2019-10-23 06:00:00 15.4 7 Noroeste 17 Noroeste 0 -- -- 71
2019-10-23 05:00:00 15.2 9 Norte 14 Norte 0 -- -- 69
2019-10-23 04:00:00 14.7 13 Norte 17 Norte 0 -- -- 69
2019-10-23 03:00:00 15.4 10 Noroeste 29 Noroeste 0 -- -- 69
2019-10-23 02:00:00 15.5 10 Nordeste 17 Norte 0 -- -- 58
2019-10-23 01:00:00 15.8 9 Norte 19 Nordeste 0 -- -- 57
2019-10-23 00:00:00 15.9 4 Noroeste 20 Nordeste 0 -- -- 63
2019-10-22 23:00:00 15.8 9 Noroeste 15 Norte 0 -- -- 65
2019-10-22 22:00:00 16.3 4 Sudeste 25 Sur 0 -- -- 67
2019-10-22 21:00:00 16.7 8 Noroeste 35 Nordeste 0 -- -- 61
2019-10-22 20:00:00 17.2 15 Nordeste 45 Nordeste 0 -- -- 53
2019-10-22 19:00:00 17.6 29 Norte 56 Norte 0 -- -- 50
2019-10-22 18:00:00 19 37 Norte 65 Norte 0 -- -- 47
2019-10-22 17:00:00 19.8 37 Nordeste 57 Nordeste 0 -- -- 45
2019-10-22 16:00:00 20.6 28 Norte 46 Norte 0 -- -- 39
2019-10-22 15:00:00 20.3 33 Nordeste 58 Nordeste 0 -- -- 45
2019-10-22 14:00:00 20.3 33 Nordeste 50 Norte 0 -- -- 47
2019-10-22 13:00:00 19.2 35 Nordeste 52 Nordeste 0 -- -- 54
2019-10-22 12:00:00 19.9 26 Norte 41 Norte 0 -- -- 50
2019-10-22 11:00:00 19.8 18 Sur 32 Sur 0 -- -- 53
2019-10-22 10:00:00 17.1 14 Sudeste 31 Sur 0 -- -- 63
2019-10-22 09:00:00 16.5 16 Nordeste 30 Norte 0 -- -- 60
2019-10-22 08:00:00 15.8 8 Norte 28 Norte 0 -- -- 59
2019-10-22 07:00:00 14.8 9 Norte 17 Norte 0 -- -- 65
2019-10-22 06:00:00 16 12 Norte 23 Norte 0 -- -- 60
2019-10-22 05:00:00 16.2 7 Norte 29 Nordeste 0 -- -- 62
2019-10-22 04:00:00 16.1 4 Sudoeste 16 Oeste 0 -- -- 61
2019-10-22 03:00:00 16.2 5 Sur 24 Sudeste 0 -- -- 61
2019-10-22 02:00:00 16.6 11 Sudeste 34 Sudeste 0 -- -- 63
2019-10-22 01:00:00 16.4 13 Sudeste 31 Este 0 -- -- 65
2019-10-22 00:00:00 16.6 16 Este 32 Sudeste 0 -- -- 62
2019-10-21 23:00:00 16.5 9 Este 33 Este 0 -- -- 56
2019-10-21 22:00:00 16.8 10 Este 23 Sudeste 0 -- -- 58
2019-10-21 21:00:00 16.4 2 Oeste 24 Sudeste 0 -- -- 60
2019-10-21 20:00:00 17 8 Sudeste 27 Sudeste 0 -- -- 59
2019-10-21 19:00:00 17.9 10 Sudeste 32 Este 0 -- -- 57
2019-10-21 18:00:00 18.9 17 Sudeste 35 Sudeste 0 -- -- 59
2019-10-21 17:00:00 19.5 23 Sudeste 39 Sudeste 0 -- -- 58
2019-10-21 16:00:00 19.6 21 Sudeste 45 Sudeste 0 -- -- 59
2019-10-21 15:00:00 20.4 18 Este 35 Este 0 -- -- 53
2019-10-21 14:00:00 20.5 15 Sudeste 36 Este 0 -- -- 56
2019-10-21 13:00:00 20.9 14 Este 45 Este 0 -- -- 54
2019-10-21 12:00:00 18.3 14 Este 45 Este 0 -- -- 60
2019-10-21 11:00:00 18.4 15 Este 30 Sudeste 0 -- -- 61
2019-10-21 10:00:00 17.7 13 Sudeste 40 Sudeste 0 -- -- 64
2019-10-21 09:00:00 17 20 Sudeste 41 Este 0 -- -- 65
2019-10-21 08:00:00 16.4 22 Este 38 Este 0 -- -- 66
2019-10-21 07:00:00 16.5 26 Sudeste 39 Sudeste 0 -- -- 71
2019-10-21 06:00:00 16.1 15 Este 28 Sudeste 0.2 -- -- 78
2019-10-21 05:00:00 16.6 15 Sudeste 39 Sudeste 0 -- -- 74
2019-10-21 04:00:00 16.6 17 Sudeste 39 Sudeste 0 -- -- 73
2019-10-21 03:00:00 16.3 23 Sudeste 47 Sudeste 0 -- -- 77
2019-10-21 02:00:00 16.3 22 Sudeste 34 Este 0 -- -- 81
2019-10-21 01:00:00 16.9 15 Este 39 Este 0 -- -- 71
2019-10-21 00:00:00 16.7 14 Nordeste 39 Nordeste 0 -- -- 72
2019-10-20 23:00:00 16.1 7 Este 23 Nordeste 0 -- -- 80
2019-10-20 22:00:00 16.3 6 Noroeste 14 Oeste 0 -- -- 92
2019-10-20 21:00:00 16.4 0 Calma 16 Sudeste 0 -- -- 97
2019-10-20 20:00:00 16.2 17 Sudeste 23 Sudeste 0.6 -- -- 98
2019-10-20 19:00:00 16.9 10 Sudeste 19 Sudeste 0.4 -- -- 98
2019-10-20 18:00:00 17.2 12 Sudeste 27 Sur 3.4 -- -- 99
2019-10-20 17:00:00 17.4 13 Sudeste 28 Sudeste 3.2 -- -- 98
2019-10-20 16:00:00 17.6 21 Sudeste 31 Sudeste 2.6 -- -- 98
2019-10-20 15:00:00 17.5 26 Sudeste 38 Sudeste 2.2 -- -- 98
2019-10-20 14:00:00 18.1 26 Sudeste 39 Sudeste 0.2 -- -- 96
2019-10-20 13:00:00 20.5 22 Sudeste 32 Sur 0 -- -- 83
2019-10-20 12:00:00 22.8 10 Sudoeste 20 Sur 0 -- -- 59
2019-10-20 11:00:00 22.9 9 Sudoeste 20 Sudoeste 0 -- -- 56
2019-10-20 10:00:00 21.4 5 Sudoeste 8 Sur 0 -- -- 62
2019-10-20 09:00:00 18.9 0 Calma 10 Nordeste 0 -- -- 70
2019-10-20 08:00:00 16.6 9 Nordeste 25 Noroeste 0 -- -- 76
2019-10-20 07:00:00 16.1 8 Nordeste 15 Nordeste 0 -- -- 74
2019-10-20 06:00:00 15.9 5 Nordeste 13 Norte 0 -- -- 65
2019-10-20 05:00:00 16.5 12 Norte 14 Norte 0 -- -- 62
2019-10-20 04:00:00 16.3 5 Norte 13 Nordeste 0 -- -- 66
2019-10-20 03:00:00 16.3 9 Norte 14 Nordeste 0 -- -- 70
2019-10-20 02:00:00 16.4 6 Nordeste 10 Nordeste 0 -- -- 67
2019-10-20 01:00:00 16.5 8 Nordeste 11 Nordeste 0 -- -- 70
2019-10-20 00:00:00 17.4 4 Nordeste 12 Nordeste 0 -- -- 66
2019-10-19 23:00:00 17.3 6 Norte 13 Nordeste 0 -- -- 69
2019-10-19 22:00:00 17.7 10 Nordeste 12 Nordeste 0 -- -- 67
2019-10-19 21:00:00 18.6 7 Norte 16 Noroeste 0 -- -- 69
2019-10-19 20:00:00 19.4 10 Noroeste 18 Noroeste 0 -- -- 73
2019-10-19 19:00:00 20.5 14 Noroeste 19 Noroeste 0 -- -- 71
2019-10-19 18:00:00 21.9 7 Oeste 16 Sur 0 -- -- 65
2019-10-19 17:00:00 21.8 10 Sur 23 Sur 0 -- -- 66
2019-10-19 16:00:00 22 13 Sur 26 Sur 0 -- -- 63
2019-10-19 15:00:00 22.4 15 Sudoeste 38 Sudoeste 0 -- -- 62
2019-10-19 14:00:00 24 18 Noroeste 34 Norte 0 -- -- 56
2019-10-19 13:00:00 23.6 15 Noroeste 26 Oeste 0 -- -- 60
2019-10-19 12:00:00 22.6 9 Sudoeste 22 Sudoeste 0 -- -- 60
2019-10-19 11:00:00 21.4 10 Sudoeste 18 Sudoeste 0 -- -- 64
2019-10-19 10:00:00 20.1 11 Oeste 16 Noroeste 0 -- -- 67
2019-10-19 09:00:00 17.8 9 Noroeste 14 Norte 0 -- -- 76
2019-10-19 08:00:00 15.5 10 Norte 15 Norte 0 -- -- 69
2019-10-19 07:00:00 15.9 9 Noroeste 17 Noroeste 0 -- -- 71
2019-10-19 06:00:00 16 12 Norte 16 Norte 0 -- -- 69
2019-10-19 05:00:00 15.5 10 Norte 16 Norte 0 -- -- 66
2019-10-19 04:00:00 16.4 12 Norte 18 Norte 0 -- -- 74
2019-10-19 03:00:00 16.1 11 Norte 16 Norte 0 -- -- 70
2019-10-19 02:00:00 16 10 Norte 15 Norte 0 -- -- 66
2019-10-19 01:00:00 16.3 12 Norte 19 Noroeste 0 -- -- 73
2019-10-19 00:00:00 16.8 12 Noroeste 18 Noroeste 0 -- -- 67
2019-10-18 23:00:00 16.6 9 Norte 13 Norte 0 -- -- 66
2019-10-18 22:00:00 16.5 7 Nordeste 12 Nordeste 0 -- -- 76
2019-10-18 21:00:00 17.9 6 Este 17 Norte 0 -- -- 75
2019-10-18 20:00:00 18.4 10 Noroeste 23 Noroeste 0 -- -- 78
2019-10-18 19:00:00 20.1 13 Noroeste 26 Noroeste 0 -- -- 72
2019-10-18 18:00:00 22 10 Oeste 21 Noroeste 0 -- -- 66
2019-10-18 17:00:00 21.3 13 Oeste 24 Sudoeste 0 -- -- 70
2019-10-18 16:00:00 21.8 16 Sur 27 Sur 0 -- -- 67
2019-10-18 15:00:00 21.7 13 Sur 26 Sudoeste 0 -- -- 64
2019-10-18 14:00:00 21.8 14 Sur 27 Sur 0 -- -- 64
2019-10-18 13:00:00 21.7 17 Sudoeste 30 Oeste 0 -- -- 66
2019-10-18 12:00:00 21.9 12 Oeste 24 Sur 0 -- -- 64
2019-10-18 11:00:00 21.1 8 Sudoeste 15 Sudoeste 0 -- -- 60
2019-10-18 10:00:00 19.5 5 Sudoeste 13 Norte 0 -- -- 69
2019-10-18 09:00:00 17.1 9 Norte 18 Norte 0 -- -- 75
2019-10-18 08:00:00 15.3 14 Norte 19 Norte 0 -- -- 71
2019-10-18 07:00:00 15.2 9 Norte 18 Noroeste 0 -- -- 69
2019-10-18 06:00:00 15.8 11 Norte 19 Norte 0 -- -- 71
2019-10-18 05:00:00 15.9 14 Norte 22 Norte 0 -- -- 71
2019-10-18 04:00:00 15.6 13 Norte 21 Norte 0 -- -- 74
2019-10-18 03:00:00 15.3 12 Norte 20 Norte 0 -- -- 73
2019-10-18 02:00:00 16.6 13 Norte 24 Noroeste 0 -- -- 70
2019-10-18 01:00:00 16.3 5 Norte 17 Norte 0 -- -- 69
2019-10-18 00:00:00 15.3 13 Norte 15 Nordeste 0 -- -- 69
2019-10-17 23:00:00 15.7 10 Norte 17 Nordeste 0 -- -- 68
2019-10-17 22:00:00 16.7 9 Nordeste 13 Nordeste 0 -- -- 66
2019-10-17 21:00:00 16.7 4 Nordeste 12 Noroeste 0 -- -- 72
2019-10-17 20:00:00 17.3 5 Sudeste 13 Sur 0 -- -- 78
2019-10-17 19:00:00 18.3 9 Sudeste 15 Sudeste 0 -- -- 74
2019-10-17 18:00:00 18.7 9 Sudeste 21 Sudeste 0 -- -- 71
2019-10-17 17:00:00 18.7 14 Sudeste 24 Sur 0 -- -- 72
2019-10-17 16:00:00 19.8 15 Sudeste 26 Sur 0 -- -- 70
2019-10-17 15:00:00 20.2 16 Sudeste 31 Sur 0 -- -- 66
2019-10-17 14:00:00 21 18 Sudeste 28 Sur 0 -- -- 59
2019-10-17 13:00:00 20.3 20 Sudeste 33 Sudeste 0 -- -- 63
2019-10-17 12:00:00 21.4 21 Sur 33 Sur 0 -- -- 59
2019-10-17 11:00:00 20.8 7 Sudoeste 22 Oeste 0 -- -- 59
2019-10-17 10:00:00 19.3 11 Oeste 16 Oeste 0 -- -- 63
2019-10-17 09:00:00 17.1 3 Oeste 14 Norte 0 -- -- 73
2019-10-17 08:00:00 14.6 12 Norte 15 Nordeste 0 -- -- 79
2019-10-17 07:00:00 14.5 9 Nordeste 12 Nordeste 0 -- -- 78
2019-10-17 06:00:00 15.1 10 Nordeste 14 Norte 0 -- -- 73
2019-10-17 05:00:00 15 12 Nordeste 15 Norte 0 -- -- 72
2019-10-17 04:00:00 15.8 8 Norte 13 Norte 0 -- -- 70
2019-10-17 03:00:00 16.3 7 Norte 13 Norte 0 -- -- 70
2019-10-17 02:00:00 15.9 6 Nordeste 17 Nordeste 0 -- -- 66
2019-10-17 01:00:00 15.7 12 Nordeste 16 Nordeste 0 -- -- 67
2019-10-17 00:00:00 15.8 11 Nordeste 14 Nordeste 0 -- -- 71
2019-10-16 23:00:00 15.5 5 Nordeste 9 Nordeste 0 -- -- 81
2019-10-16 22:00:00 16.9 5 Norte 9 Norte 0 -- -- 81
2019-10-16 21:00:00 17.7 3 Norte 15 Sur 0 -- -- 79
2019-10-16 20:00:00 17.7 12 Sudeste 17 Sudeste 0 -- -- 82
2019-10-16 19:00:00 17.9 7 Sudeste 13 Sudeste 0 -- -- 82
2019-10-16 18:00:00 18.2 9 Sudeste 16 Sudeste 0 -- -- 76
2019-10-16 17:00:00 18.2 12 Sudeste 17 Sudeste 0 -- -- 80
2019-10-16 16:00:00 18.2 11 Sur 19 Sur 0 -- -- 80
2019-10-16 15:00:00 18 13 Sudeste 20 Sudeste 0 -- -- 81
2019-10-16 14:00:00 18 13 Sudeste 23 Sudeste 0 -- -- 83
2019-10-16 13:00:00 18.2 14 Sudeste 22 Sur 0 -- -- 83
2019-10-16 12:00:00 18.5 12 Sudeste 19 Sur 0 -- -- 78
2019-10-16 11:00:00 18.6 12 Sudeste 20 Sudeste 0 -- -- 77
2019-10-16 10:00:00 18.3 4 Sudeste 9 Sudeste 0 -- -- 78
2019-10-16 09:00:00 17.1 3 Norte 15 Nordeste 0 -- -- 78
2019-10-16 08:00:00 16 10 Nordeste 14 Nordeste 0 -- -- 72
2019-10-16 07:00:00 15.8 11 Nordeste 13 Nordeste 0 -- -- 73
2019-10-16 06:00:00 16.7 6 Nordeste 13 Nordeste 0 -- -- 74
2019-10-16 05:00:00 16 10 Nordeste 14 Norte 0 -- -- 69
2019-10-16 04:00:00 15.8 12 Nordeste 14 Norte 0 -- -- 70
2019-10-16 03:00:00 15.9 9 Nordeste 15 Nordeste 0 -- -- 69
2019-10-16 02:00:00 16.5 10 Nordeste 15 Nordeste 0 -- -- 70
2019-10-16 01:00:00 16.9 4 Este 18 Sudeste 0 -- -- 69
2019-10-16 00:00:00 17.3 11 Sudeste 23 Sudeste 0 -- -- 73
2019-10-15 23:00:00 17.5 15 Sudeste 29 Sudeste 0 -- -- 75
2019-10-15 22:00:00 17.5 18 Sudeste 27 Sudeste 0 -- -- 78
2019-10-15 21:00:00 17.5 19 Sudeste 32 Sudeste 0 -- -- 78
2019-10-15 20:00:00 17.7 17 Sudeste 35 Sur 0 -- -- 79
2019-10-15 19:00:00 18 10 Sur 24 Sur 0 -- -- 78
2019-10-15 18:00:00 18.6 14 Sudeste 23 Sur 0 -- -- 77
2019-10-15 17:00:00 18.9 15 Sudeste 25 Sudeste 0 -- -- 71
2019-10-15 16:00:00 18.4 17 Sudeste 24 Sudeste 0 -- -- 76
2019-10-15 15:00:00 18.4 16 Sudeste 27 Sudeste 0 -- -- 77
2019-10-15 14:00:00 19.4 16 Sur 27 Sur 0 -- -- 74
2019-10-15 13:00:00 19.5 12 Sudeste 23 Sudeste 0 -- -- 72
2019-10-15 12:00:00 18.8 14 Sudeste 21 Sudeste 0 -- -- 76
2019-10-15 11:00:00 18.1 14 Sudeste 22 Sudeste 0 -- -- 81
2019-10-15 10:00:00 17.3 9 Sudeste 16 Este 0 -- -- 82
2019-10-15 09:00:00 16.6 5 Nordeste 10 Norte 0.2 -- -- 85
2019-10-15 08:00:00 16.1 7 Nordeste 10 Este 0 -- -- 86
2019-10-15 07:00:00 16.6 4 Este 18 Sur 0 -- -- 88
2019-10-15 06:00:00 16.6 9 Norte 14 Norte 0 -- -- 71
2019-10-15 05:00:00 16.2 8 Norte 18 Nordeste 0 -- -- 72
2019-10-15 04:00:00 15.4 13 Norte 17 Norte 0 -- -- 75
2019-10-15 03:00:00 15.6 12 Norte 15 Noroeste 0 -- -- 75
2019-10-15 02:00:00 15.8 13 Norte 18 Norte 0 -- -- 76
2019-10-15 01:00:00 15.9 11 Norte 16 Norte 0 -- -- 78
2019-10-15 00:00:00 16.4 10 Norte 21 Norte 0 -- -- 77
2019-10-14 23:00:00 16.8 13 Norte 19 Norte 0 -- -- 75
2019-10-14 22:00:00 17.1 9 Norte 19 Norte 0 -- -- 73
2019-10-14 21:00:00 17.9 12 Noroeste 19 Noroeste 0 -- -- 73
2019-10-14 20:00:00 17.9 10 Norte 20 Noroeste 0 -- -- 77
2019-10-14 19:00:00 19.3 11 Noroeste 21 Noroeste 0 -- -- 71
2019-10-14 18:00:00 20.1 11 Noroeste 24 Sudoeste 0 -- -- 68
2019-10-14 17:00:00 21.3 14 Noroeste 23 Noroeste 0 -- -- 65
2019-10-14 16:00:00 21 12 Sudoeste 32 Sudoeste 0 -- -- 66
2019-10-14 15:00:00 21 18 Sur 36 Sur 0 -- -- 68
2019-10-14 14:00:00 18.9 19 Sur 39 Sudeste 0 -- -- 80
2019-10-14 13:00:00 19.1 17 Sur 32 Sur 0 -- -- 82
2019-10-14 12:00:00 21 15 Sur 24 Sur 0 -- -- 73
2019-10-14 11:00:00 20 14 Sur 21 Sur 0 -- -- 77
2019-10-14 10:00:00 19.8 6 Sudoeste 11 Sudoeste 0 -- -- 74
2019-10-14 09:00:00 17.1 6 Noroeste 10 Norte 0 -- -- 83
2019-10-14 08:00:00 16.5 5 Nordeste 13 Norte 0 -- -- 82
2019-10-14 07:00:00 16.2 7 Norte 15 Norte 0 -- -- 83
2019-10-14 06:00:00 15.5 4 Norte 13 Norte 0 -- -- 79
2019-10-14 05:00:00 15.5 3 Norte 11 Nordeste 0 -- -- 83
2019-10-14 04:00:00 16 5 Norte 11 Nordeste 0 -- -- 77
2019-10-14 03:00:00 15.9 10 Nordeste 13 Nordeste 0 -- -- 78
2019-10-14 02:00:00 15.8 4 Norte 11 Nordeste 0 -- -- 79
2019-10-14 01:00:00 16.1 6 Nordeste 10 Nordeste 0 -- -- 80
2019-10-14 00:00:00 16.4 10 Nordeste 12 Nordeste 0 -- -- 77